Time;durP1;ratioP1;P1;durP2;ratioP2;P2;SDS_P1;SDS_P2;PMS_P1;PMS_P2;Temp;Humidity;BMP_temperature;BMP_pressure;BME280_temperature;BME280_humidity;BME280_pressure;Samples;Min_cycle;Max_cycle;Signal;HPM_P1;HPM_P2
2022/09/25 00:01:13;;;;;;;4.05;2.53;;;16.60;71.30;;;;;;4973336;28;20403;-46
2022/09/25 00:03:40;;;;;;;3.08;2.17;;;16.60;71.40;;;;;;4975457;28;20074;-47
2022/09/25 00:06:13;;;;;;;10.70;3.05;;;16.60;71.50;;;;;;4985122;28;20053;-45
2022/09/25 00:08:40;;;;;;;4.20;2.15;;;16.60;71.60;;;;;;4992589;28;20054;-47
2022/09/25 00:11:10;;;;;;;3.38;2.30;;;16.60;71.60;;;;;;4992264;28;20081;-46
2022/09/25 00:13:39;;;;;;;4.68;2.30;;;16.60;72.10;;;;;;4975347;28;20105;-47
2022/09/25 00:16:08;;;;;;;5.78;2.83;;;16.60;71.30;;;;;;4972215;28;20513;-46
2022/09/25 00:21:19;;;;;;;2.78;2.40;;;16.60;71.10;;;;;;4988008;28;20039;-47
2022/09/25 00:23:47;;;;;;;4.60;2.50;;;16.60;71.10;;;;;;4982187;28;20046;-46
2022/09/25 00:26:17;;;;;;;4.13;2.20;;;16.60;71.10;;;;;;4984475;28;20713;-46
2022/09/25 00:28:46;;;;;;;4.63;2.45;;;16.60;71.30;;;;;;4990874;28;20058;-46
2022/09/25 00:31:22;;;;;;;4.03;2.30;;;16.50;71.20;;;;;;4981662;28;20066;-47
2022/09/25 00:33:53;;;;;;;5.20;1.80;;;16.60;71.40;;;;;;4973247;28;20049;-47
2022/09/25 00:36:20;;;;;;;4.35;1.90;;;16.60;71.40;;;;;;4981171;28;20074;-47
2022/09/25 00:38:49;;;;;;;4.15;1.65;;;16.50;71.20;;;;;;4992075;28;20046;-45
2022/09/25 00:41:17;;;;;;;4.18;1.90;;;16.50;71.20;;;;;;4985496;28;20055;-46
2022/09/25 00:43:50;;;;;;;3.67;1.98;;;16.50;71.30;;;;;;4975919;28;20070;-46
2022/09/25 00:46:21;;;;;;;5.97;2.00;;;16.50;71.30;;;;;;4985200;28;20051;-46
2022/09/25 00:49:13;;;;;;;4.10;2.50;;;16.50;71.30;;;;;;4992163;28;20046;-46
2022/09/25 00:51:51;;;;;;;6.00;1.98;;;16.50;71.40;;;;;;4974770;28;20513;-48
2022/09/25 00:54:33;;;;;;;6.47;1.70;;;16.50;71.30;;;;;;4981520;28;20043;-46
2022/09/25 00:57:05;;;;;;;5.32;1.88;;;16.50;71.40;;;;;;4977604;28;20054;-46
2022/09/25 00:59:42;;;;;;;5.15;1.73;;;16.50;71.30;;;;;;4980759;28;20047;-46
2022/09/25 01:02:13;;;;;;;6.05;2.17;;;16.50;71.50;;;;;;4973536;28;20042;-46
2022/09/25 01:04:44;;;;;;;4.47;1.70;;;16.50;71.40;;;;;;4978264;28;20050;-46
2022/09/25 01:07:13;;;;;;;5.05;2.08;;;16.50;71.40;;;;;;4981581;28;20051;-47
2022/09/25 01:09:41;;;;;;;4.35;2.10;;;16.50;71.30;;;;;;4966760;28;20109;-47
2022/09/25 01:12:08;;;;;;;5.50;1.95;;;16.50;71.30;;;;;;4983561;28;20495;-46
2022/09/25 01:14:35;;;;;;;2.15;1.60;;;16.50;71.40;;;;;;4983447;28;20104;-46
2022/09/25 01:17:19;;;;;;;5.10;2.35;;;16.40;71.40;;;;;;4977935;28;20037;-45
2022/09/25 01:20:07;;;;;;;6.43;1.83;;;16.40;71.70;;;;;;4973425;28;20042;-47
2022/09/25 01:23:15;;;;;;;3.05;1.95;;;16.40;71.70;;;;;;4974465;28;20055;-46
2022/09/25 01:26:00;;;;;;;4.03;1.70;;;16.40;71.70;;;;;;4972409;28;20043;-47
2022/09/25 01:29:03;;;;;;;5.78;2.50;;;16.40;71.70;;;;;;4971879;28;20422;-47
2022/09/25 01:31:41;;;;;;;5.97;2.65;;;16.40;71.70;;;;;;4982400;28;20057;-49
2022/09/25 01:34:24;;;;;;;2.53;2.10;;;16.40;71.60;;;;;;4969278;28;20038;-48
2022/09/25 01:37:19;;;;;;;3.45;2.10;;;16.40;71.70;;;;;;4979477;28;20047;-46
2022/09/25 01:39:55;;;;;;;5.28;1.92;;;16.40;72.10;;;;;;4979694;28;20478;-46
2022/09/25 01:42:28;;;;;;;4.75;2.55;;;16.30;71.70;;;;;;4970878;28;20046;-49
2022/09/25 01:45:03;;;;;;;7.45;2.95;;;16.30;71.80;;;;;;4985617;28;20115;-46
2022/09/25 01:47:35;;;;;;;5.65;2.88;;;16.30;71.90;;;;;;4979642;28;20053;-47
2022/09/25 01:50:13;;;;;;;4.05;2.80;;;16.30;71.90;;;;;;4979458;28;20034;-46
2022/09/25 01:52:45;;;;;;;4.25;2.75;;;16.30;72.20;;;;;;4983293;28;20066;-49
2022/09/25 01:55:25;;;;;;;;;;;16.30;72.10;;;;;;4987431;28;20373;-47
2022/09/25 01:57:57;;;;;;;7.57;2.75;;;16.30;71.80;;;;;;4979057;28;19921;-46
2022/09/25 02:00:25;;;;;;;5.63;3.33;;;16.30;71.70;;;;;;4983601;28;20072;-47
2022/09/25 02:03:17;;;;;;;6.10;3.03;;;16.30;71.70;;;;;;4990478;28;20060;-46
2022/09/25 02:05:51;;;;;;;3.35;2.60;;;16.30;72.20;;;;;;4975907;28;20038;-47
2022/09/25 02:08:23;;;;;;;5.10;2.58;;;16.30;72.00;;;;;;4986570;28;20052;-47
2022/09/25 02:10:57;;;;;;;9.13;2.88;;;16.20;72.10;;;;;;4977385;28;20050;-47
2022/09/25 02:13:28;;;;;;;9.32;2.90;;;16.20;72.20;;;;;;4984857;28;20597;-46
2022/09/25 02:16:02;;;;;;;6.15;2.33;;;16.20;72.00;;;;;;4977595;28;20434;-50
2022/09/25 02:21:33;;;;;;;5.47;2.13;;;16.20;72.00;;;;;;4991653;28;20042;-47
2022/09/25 02:24:10;;;;;;;6.22;2.22;;;16.20;72.10;;;;;;4975214;28;20046;-46
2022/09/25 02:26:37;;;;;;;5.07;2.45;;;16.20;72.00;;;;;;4976850;28;20060;-49
2022/09/25 02:29:04;;;;;;;6.35;2.40;;;16.20;71.70;;;;;;4982265;28;20097;-46
2022/09/25 02:31:35;;;;;;;3.47;2.08;;;16.20;71.70;;;;;;4991257;28;20046;-48
2022/09/25 02:34:02;;;;;;;4.40;1.90;;;16.20;71.60;;;;;;4985573;28;20039;-50
2022/09/25 02:36:31;;;;;;;4.97;1.90;;;16.20;71.50;;;;;;4978315;28;20633;-46
2022/09/25 02:38:59;;;;;;;3.75;1.73;;;16.20;71.60;;;;;;4982254;28;20106;-47
2022/09/25 02:41:52;;;;;;;5.32;3.08;;;16.20;71.60;;;;;;4991267;28;20043;-46
2022/09/25 02:44:38;;;;;;;;;;;16.20;71.80;;;;;;4973699;28;20121;-47
2022/09/25 02:47:37;;;;;;;4.32;1.65;;;16.20;71.40;;;;;;4956887;28;20021;-46
2022/09/25 02:50:28;;;;;;;6.72;2.05;;;16.10;71.20;;;;;;4952022;29;20069;-50
2022/09/25 02:53:16;;;;;;;5.78;2.28;;;16.10;71.40;;;;;;4974707;28;20121;-48
2022/09/25 02:56:22;;;;;;;7.68;2.33;;;16.10;71.50;;;;;;4981001;28;20513;-49
2022/09/25 02:58:52;;;;;;;5.43;2.25;;;16.00;71.40;;;;;;4970397;28;20047;-49
2022/09/25 03:01:23;;;;;;;5.05;2.45;;;16.00;71.30;;;;;;4971289;28;20105;-47
2022/09/25 03:03:53;;;;;;;9.05;2.65;;;16.00;71.30;;;;;;4971652;28;20047;-47
2022/09/25 03:06:22;;;;;;;4.75;1.80;;;16.00;71.30;;;;;;4979438;28;20122;-47
2022/09/25 03:08:55;;;;;;;6.55;2.10;;;15.90;71.30;;;;;;4990573;28;20589;-47
2022/09/25 03:11:28;;;;;;;3.83;1.88;;;15.90;71.40;;;;;;4978232;28;20525;-49
2022/09/25 03:14:00;;;;;;;5.03;1.80;;;15.90;71.30;;;;;;4981580;28;20046;-47
2022/09/25 03:16:38;;;;;;;2.88;1.48;;;15.90;71.50;;;;;;4974195;28;20050;-48
2022/09/25 03:19:05;;;;;;;4.18;2.03;;;15.90;71.40;;;;;;4978453;28;20038;-46
2022/09/25 03:21:32;;;;;;;6.18;2.35;;;15.90;71.30;;;;;;4976688;28;20035;-48
2022/09/25 03:24:00;;;;;;;2.53;1.63;;;15.80;71.20;;;;;;4978828;28;20047;-49
2022/09/25 03:26:28;;;;;;;6.75;1.88;;;15.80;71.20;;;;;;4988744;28;20565;-49
2022/09/25 03:29:00;;;;;;;3.05;1.50;;;15.80;71.20;;;;;;4986981;28;20057;-47
2022/09/25 03:31:29;;;;;;;3.30;1.60;;;15.80;71.30;;;;;;4979193;28;20050;-47
2022/09/25 03:33:57;;;;;;;4.47;1.83;;;15.80;71.20;;;;;;4975755;28;20125;-47
2022/09/25 03:36:26;;;;;;;3.03;1.50;;;15.70;71.20;;;;;;4979438;28;20062;-50
2022/09/25 03:38:58;;;;;;;5.20;1.40;;;15.70;71.20;;;;;;4980407;28;20034;-49
2022/09/25 03:41:27;;;;;;;3.00;1.50;;;15.70;71.20;;;;;;4976548;28;20141;-49
2022/09/25 03:43:55;;;;;;;5.55;1.70;;;15.70;71.10;;;;;;4981012;28;20121;-49
2022/09/25 03:46:27;;;;;;;4.65;1.80;;;15.70;70.90;;;;;;4990803;28;20042;-51
2022/09/25 03:48:54;;;;;;;2.95;2.03;;;15.80;70.90;;;;;;4977415;28;20070;-51
2022/09/25 03:51:22;;;;;;;4.97;1.63;;;15.70;70.80;;;;;;4983523;28;20053;-47
2022/09/25 03:53:49;;;;;;;4.07;1.45;;;15.70;70.90;;;;;;4984802;28;20053;-49
2022/09/25 03:56:19;;;;;;;5.72;1.63;;;15.70;70.80;;;;;;4988291;28;20047;-46
2022/09/25 03:58:49;;;;;;;4.30;1.42;;;15.80;70.90;;;;;;4976143;28;20561;-47
2022/09/25 04:01:18;;;;;;;6.53;1.50;;;15.70;70.90;;;;;;4985258;28;20045;-46
2022/09/25 04:03:46;;;;;;;4.78;2.30;;;15.70;70.90;;;;;;4972794;28;20047;-47
2022/09/25 04:06:17;;;;;;;3.47;1.60;;;15.70;70.90;;;;;;4974631;28;20054;-50
2022/09/25 04:08:45;;;;;;;4.13;1.50;;;15.70;70.80;;;;;;4977300;28;20070;-51
2022/09/25 04:11:11;;;;;;;5.05;1.50;;;15.60;70.60;;;;;;4984601;28;20043;-46
2022/09/25 04:13:40;;;;;;;6.88;1.70;;;15.70;70.60;;;;;;4991320;28;20070;-51
2022/09/25 04:16:07;;;;;;;2.00;1.20;;;15.60;70.60;;;;;;4983294;28;20066;-51
2022/09/25 04:18:34;;;;;;;4.70;1.55;;;15.60;70.70;;;;;;4971482;28;20531;-49
2022/09/25 04:21:07;;;;;;;6.43;1.95;;;15.60;70.70;;;;;;4982286;28;20050;-50
2022/09/25 04:23:35;;;;;;;6.03;1.60;;;15.60;70.70;;;;;;4974975;28;20065;-50
2022/09/25 04:26:01;;;;;;;3.20;1.20;;;15.70;70.70;;;;;;4974352;28;20061;-48
2022/09/25 04:28:31;;;;;;;7.60;1.85;;;15.60;70.50;;;;;;4973129;28;20561;-50
2022/09/25 04:30:58;;;;;;;6.47;1.40;;;15.60;70.50;;;;;;4981603;28;20062;-48
2022/09/25 04:36:11;;;;;;;3.47;1.58;;;15.60;70.50;;;;;;4976829;28;20060;-47
2022/09/25 04:38:38;;;;;;;7.53;1.83;;;15.60;70.40;;;;;;4983792;28;20369;-49
2022/09/25 04:41:06;;;;;;;5.97;1.50;;;15.50;70.40;;;;;;4973051;28;20034;-46
2022/09/25 04:43:34;;;;;;;3.53;1.50;;;15.50;70.40;;;;;;4961562;28;20066;-50
2022/09/25 04:46:02;;;;;;;5.22;1.52;;;15.40;70.40;;;;;;4969966;28;20081;-46
2022/09/25 04:48:31;;;;;;;6.43;2.28;;;15.40;70.50;;;;;;4973425;28;20051;-47
2022/09/25 04:50:59;;;;;;;5.97;1.80;;;15.40;70.50;;;;;;4985236;28;20121;-51
2022/09/25 04:53:26;;;;;;;4.47;1.50;;;15.40;70.60;;;;;;4983279;28;20044;-47
2022/09/25 04:55:54;;;;;;;6.95;1.63;;;15.40;70.60;;;;;;4980181;28;20038;-50
2022/09/25 04:58:23;;;;;;;1.80;1.15;;;15.40;70.80;;;;;;4980234;28;20051;-50
2022/09/25 05:00:50;;;;;;;3.80;1.80;;;15.40;70.70;;;;;;4963635;28;20043;-48
2022/09/25 05:03:17;;;;;;;6.03;1.52;;;15.30;70.70;;;;;;4961592;28;20050;-48
2022/09/25 05:05:43;;;;;;;5.07;2.17;;;15.30;70.80;;;;;;4971281;28;20066;-46
2022/09/25 05:08:10;;;;;;;3.85;1.80;;;15.30;70.80;;;;;;4979454;28;20055;-48
2022/09/25 05:10:40;;;;;;;2.97;1.40;;;15.30;70.80;;;;;;4991533;28;20046;-46
2022/09/25 05:13:11;;;;;;;;;;;15.30;70.90;;;;;;4980953;28;20562;-48
2022/09/25 05:15:38;;;;;;;4.65;2.08;;;15.40;70.90;;;;;;4979395;28;19926;-51
2022/09/25 05:18:11;;;;;;;5.72;1.58;;;15.30;70.60;;;;;;4985936;28;20039;-47
2022/09/25 05:20:38;;;;;;;3.58;1.90;;;15.30;70.70;;;;;;4993099;28;20058;-46
2022/09/25 05:23:05;;;;;;;5.82;1.83;;;15.30;70.60;;;;;;4978317;28;20057;-46
2022/09/25 05:25:32;;;;;;;2.97;1.45;;;15.30;70.60;;;;;;4983260;28;20121;-46
2022/09/25 05:28:00;;;;;;;5.13;1.70;;;15.30;70.50;;;;;;4992436;28;20043;-45
2022/09/25 05:30:30;;;;;;;2.80;1.55;;;15.30;70.50;;;;;;4975600;28;20052;-47
2022/09/25 05:32:57;;;;;;;3.47;1.80;;;15.20;70.50;;;;;;4972465;28;20052;-47
2022/09/25 05:35:29;;;;;;;4.75;1.75;;;15.20;70.40;;;;;;4981335;28;20042;-47
2022/09/25 05:37:55;;;;;;;5.88;2.53;;;15.20;70.40;;;;;;4979434;28;20047;-47
2022/09/25 05:40:23;;;;;;;3.85;2.13;;;15.20;70.40;;;;;;4967051;28;20047;-50
2022/09/25 05:42:51;;;;;;;3.65;1.48;;;15.10;70.40;;;;;;4980486;28;20038;-47
2022/09/25 05:45:19;;;;;;;4.47;2.15;;;15.10;70.50;;;;;;4972440;28;20412;-50
2022/09/25 05:47:47;;;;;;;3.50;1.70;;;15.10;70.50;;;;;;4971323;28;20057;-50
2022/09/25 05:50:15;;;;;;;3.45;2.67;;;15.00;70.40;;;;;;4976449;28;20410;-46
2022/09/25 05:52:43;;;;;;;3.38;1.90;;;15.00;70.40;;;;;;4981107;28;20052;-50
2022/09/25 05:55:10;;;;;;;5.35;1.63;;;15.00;70.40;;;;;;4982639;28;20046;-51
2022/09/25 05:57:37;;;;;;;5.53;1.95;;;14.90;70.30;;;;;;4970180;28;20043;-46
2022/09/25 06:00:08;;;;;;;5.75;2.00;;;14.80;70.30;;;;;;4979295;28;20038;-50
2022/09/25 06:02:43;;;;;;;4.97;1.88;;;14.80;70.40;;;;;;4990308;28;20100;-50
2022/09/25 06:05:11;;;;;;;2.92;1.50;;;14.80;70.40;;;;;;4979664;28;20046;-47
2022/09/25 06:07:40;;;;;;;3.85;1.55;;;14.70;70.50;;;;;;4981527;28;20051;-51
2022/09/25 06:10:08;;;;;;;3.90;1.83;;;14.70;70.50;;;;;;4979369;28;20050;-48
2022/09/25 06:12:35;;;;;;;5.80;2.13;;;14.70;70.70;;;;;;4981600;28;20046;-49
2022/09/25 06:15:04;;;;;;;3.78;2.22;;;14.60;70.70;;;;;;4960107;28;20455;-51
2022/09/25 06:17:33;;;;;;;4.43;1.92;;;14.60;70.70;;;;;;4971480;28;20085;-47
2022/09/25 06:20:07;;;;;;;5.28;1.92;;;14.60;70.80;;;;;;4970183;28;20046;-49
2022/09/25 06:22:51;;;;;;;5.28;2.38;;;14.60;70.90;;;;;;4955638;28;20045;-50
2022/09/25 06:25:18;;;;;;;3.30;1.60;;;14.50;71.00;;;;;;4966558;28;20065;-50
2022/09/25 06:27:45;;;;;;;4.40;2.20;;;14.50;70.80;;;;;;4963690;28;20046;-49
2022/09/25 06:30:11;;;;;;;7.60;2.30;;;14.50;71.60;;;;;;4967314;28;20043;-50
2022/09/25 06:32:38;;;;;;;4.65;2.60;;;14.50;71.70;;;;;;4976928;28;20503;-48
2022/09/25 06:35:05;;;;;;;4.55;2.30;;;14.50;71.20;;;;;;4957839;28;20047;-50
2022/09/25 06:37:32;;;;;;;10.68;4.13;;;14.40;71.30;;;;;;4980473;28;20410;-49
2022/09/25 06:39:59;;;;;;;4.72;2.25;;;14.40;71.40;;;;;;4983552;28;20042;-48
2022/09/25 06:42:26;;;;;;;7.28;3.25;;;14.40;71.50;;;;;;4972195;28;20042;-47
2022/09/25 06:44:52;;;;;;;3.08;2.35;;;14.40;71.50;;;;;;4970900;28;20066;-49
2022/09/25 06:47:20;;;;;;;6.15;2.53;;;14.40;71.80;;;;;;4971494;28;20054;-47
2022/09/25 06:49:52;;;;;;;4.95;2.70;;;14.40;71.90;;;;;;4974775;28;20418;-50
2022/09/25 06:52:19;;;;;;;7.25;2.65;;;14.40;71.90;;;;;;4980688;28;20057;-47
2022/09/25 06:54:46;;;;;;;4.78;2.60;;;14.40;71.90;;;;;;4952690;28;20043;-49
2022/09/25 06:57:12;;;;;;;5.18;2.45;;;14.40;72.00;;;;;;4963988;28;20113;-47
2022/09/25 06:59:39;;;;;;;4.50;2.40;;;14.50;72.10;;;;;;4976428;28;20058;-51
2022/09/25 07:04:52;;;;;;;4.15;2.75;;;14.50;72.10;;;;;;4981255;28;20046;-49
2022/09/25 07:07:19;;;;;;;6.13;2.95;;;14.50;72.20;;;;;;4968645;28;20047;-50
2022/09/25 07:09:47;;;;;;;5.55;2.95;;;14.50;72.30;;;;;;4970139;28;20092;-49
2022/09/25 07:12:16;;;;;;;3.72;2.13;;;14.50;72.40;;;;;;4959037;28;20047;-47
2022/09/25 07:14:45;;;;;;;8.32;2.47;;;14.60;73.00;;;;;;4960007;28;20506;-50
2022/09/25 07:17:13;;;;;;;5.40;2.83;;;14.60;72.10;;;;;;4977193;28;20070;-46
2022/09/25 07:19:39;;;;;;;3.47;2.92;;;14.60;72.10;;;;;;4990179;28;20053;-48
2022/09/25 07:22:06;;;;;;;7.47;2.75;;;14.60;72.30;;;;;;4971109;28;20042;-50
2022/09/25 07:24:32;;;;;;;7.63;2.38;;;14.70;72.40;;;;;;4968832;28;20042;-48
2022/09/25 07:27:01;;;;;;;6.15;2.40;;;14.70;72.50;;;;;;4977723;28;20130;-50
2022/09/25 07:29:28;;;;;;;4.60;2.22;;;14.70;72.40;;;;;;4983315;28;20053;-49
2022/09/25 07:31:55;;;;;;;6.70;3.22;;;14.70;72.50;;;;;;4993192;28;20129;-45
2022/09/25 07:34:21;;;;;;;5.45;3.13;;;14.70;72.40;;;;;;4989476;28;20518;-49
2022/09/25 07:36:51;;;;;;;4.05;2.55;;;14.80;72.50;;;;;;4983305;28;20039;-50
2022/09/25 07:39:20;;;;;;;4.43;2.15;;;14.80;72.40;;;;;;4977118;28;20047;-46
2022/09/25 07:41:51;;;;;;;6.18;2.38;;;14.80;72.50;;;;;;4980252;28;20049;-49
2022/09/25 07:44:17;;;;;;;4.70;2.13;;;14.80;72.60;;;;;;4974379;28;20169;-49
2022/09/25 07:47:00;;;;;;;4.70;2.50;;;14.80;72.60;;;;;;4984506;28;20034;-47
2022/09/25 07:49:27;;;;;;;4.40;2.47;;;14.90;72.50;;;;;;4985681;28;20383;-47
2022/09/25 07:52:08;;;;;;;5.15;2.72;;;14.90;72.50;;;;;;4993280;28;20081;-47
2022/09/25 07:54:35;;;;;;;7.38;2.42;;;14.90;72.20;;;;;;4988041;28;20676;-47
2022/09/25 07:57:06;;;;;;;5.97;2.78;;;15.00;72.10;;;;;;4972148;28;20467;-47
2022/09/25 07:59:33;;;;;;;5.18;2.38;;;15.00;72.00;;;;;;4982604;28;20458;-51
2022/09/25 08:02:02;;;;;;;4.50;2.03;;;15.00;72.10;;;;;;4980824;28;20041;-50
2022/09/25 08:04:31;;;;;;;9.65;2.88;;;15.10;72.10;;;;;;4978105;28;20567;-50
2022/09/25 08:06:58;;;;;;;4.80;2.60;;;15.10;71.90;;;;;;4979841;28;20070;-46
2022/09/25 08:09:25;;;;;;;4.68;2.47;;;15.10;71.90;;;;;;4963400;28;20044;-47
2022/09/25 08:11:52;;;;;;;5.72;2.58;;;15.10;71.90;;;;;;4968831;28;20043;-47
2022/09/25 08:14:21;;;;;;;6.57;2.33;;;15.20;71.90;;;;;;4970471;28;20043;-48
2022/09/25 08:16:54;;;;;;;5.10;2.20;;;15.20;71.80;;;;;;4971682;28;20038;-47
2022/09/25 08:19:24;;;;;;;4.28;2.75;;;15.30;71.50;;;;;;4979256;28;20070;-50
2022/09/25 08:21:52;;;;;;;3.30;1.92;;;15.30;71.50;;;;;;4974142;28;20045;-50
2022/09/25 08:24:19;;;;;;;8.23;2.13;;;15.30;71.30;;;;;;4982173;28;20596;-47
2022/09/25 08:26:50;;;;;;;3.38;1.75;;;15.40;71.10;;;;;;4993228;28;20136;-50
2022/09/25 08:29:17;;;;;;;5.03;2.50;;;15.40;71.20;;;;;;4987093;28;20081;-51
2022/09/25 08:31:44;;;;;;;2.75;2.00;;;15.50;71.40;;;;;;4969142;28;20049;-47
2022/09/25 08:34:11;;;;;;;6.57;1.83;;;15.50;71.40;;;;;;4983964;28;20049;-48
2022/09/25 08:36:58;;;;;;;6.35;2.17;;;15.50;71.50;;;;;;4992389;28;20034;-50
2022/09/25 08:39:24;;;;;;;6.30;1.85;;;15.60;71.10;;;;;;4982044;28;20050;-51
2022/09/25 08:41:54;;;;;;;3.85;2.00;;;15.60;70.80;;;;;;4983154;28;20062;-49
2022/09/25 08:44:35;;;;;;;5.65;1.80;;;15.70;70.80;;;;;;4981831;28;21159;-50
2022/09/25 08:50:15;;;;;;;5.22;1.65;;;15.80;70.30;;;;;;4980798;28;20069;-47
2022/09/25 08:52:45;;;;;;;3.88;1.70;;;15.90;70.10;;;;;;4983124;28;20084;-49
2022/09/25 08:55:23;;;;;;;3.70;2.25;;;15.90;70.00;;;;;;4992487;28;20053;-49
2022/09/25 08:57:54;;;;;;;5.32;1.90;;;15.90;70.00;;;;;;4968712;28;20145;-50
2022/09/25 09:00:23;;;;;;;5.95;2.72;;;16.00;70.10;;;;;;4973802;28;20042;-49
2022/09/25 09:02:53;;;;;;;6.90;1.60;;;16.00;70.00;;;;;;4972573;28;20046;-51
2022/09/25 09:05:28;;;;;;;6.57;1.90;;;16.10;70.00;;;;;;4953480;28;20643;-48
2022/09/25 09:08:00;;;;;;;3.78;1.60;;;16.20;69.90;;;;;;4957750;28;20050;-49
2022/09/25 09:10:32;;;;;;;6.15;1.83;;;16.20;69.20;;;;;;4978497;28;20042;-50
2022/09/25 09:13:10;;;;;;;7.63;1.30;;;16.30;69.00;;;;;;4981932;28;20046;-46
2022/09/25 09:15:46;;;;;;;6.47;2.05;;;16.40;69.10;;;;;;4980102;28;20038;-49
2022/09/25 09:18:25;;;;;;;3.08;1.08;;;16.50;68.80;;;;;;4968441;28;20047;-49
2022/09/25 09:21:07;;;;;;;3.47;1.20;;;16.60;68.80;;;;;;4980703;28;20062;-47
2022/09/25 09:23:46;;;;;;;4.90;1.33;;;16.60;68.10;;;;;;4974459;28;20046;-51
2022/09/25 09:26:27;;;;;;;3.22;0.93;;;16.80;68.50;;;;;;4981356;28;20125;-51
2022/09/25 09:29:11;;;;;;;1.35;0.88;;;16.90;67.50;;;;;;4978189;28;20071;-49
2022/09/25 09:32:19;;;;;;;3.83;1.92;;;17.00;66.70;;;;;;4952959;29;20527;-49
2022/09/25 09:35:03;;;;;;;10.63;2.05;;;17.10;66.30;;;;;;4981319;28;20042;-51
2022/09/25 09:37:54;;;;;;;4.40;1.02;;;17.10;65.60;;;;;;4980527;28;20682;-49
2022/09/25 09:40:48;;;;;;;4.60;1.00;;;17.20;65.10;;;;;;4985040;28;20537;-50
2022/09/25 09:43:20;;;;;;;4.38;0.85;;;17.30;65.40;;;;;;4979250;28;20113;-49
2022/09/25 09:45:59;;;;;;;4.03;1.23;;;17.40;65.10;;;;;;4975895;28;20125;-52
2022/09/25 09:48:49;;;;;;;2.83;1.20;;;17.40;64.10;;;;;;4983495;28;20057;-52
2022/09/25 09:51:23;;;;;;;4.18;1.10;;;17.60;64.20;;;;;;4980017;28;20061;-51
2022/09/25 09:54:37;;;;;;;2.50;1.13;;;17.60;63.80;;;;;;4974529;28;20034;-50
2022/09/25 09:57:30;;;;;;;4.55;1.05;;;17.80;63.90;;;;;;4962736;28;20047;-50
2022/09/25 10:00:15;;;;;;;2.55;0.93;;;17.90;63.90;;;;;;4981373;28;20070;-50
2022/09/25 10:02:56;;;;;;;3.45;0.90;;;18.00;63.50;;;;;;4990826;28;20050;-50
2022/09/25 10:05:31;;;;;;;5.25;1.77;;;18.00;63.10;;;;;;4977827;28;20050;-50
2022/09/25 10:07:59;;;;;;;2.03;0.95;;;18.10;63.20;;;;;;4972842;28;20046;-50
2022/09/25 10:10:37;;;;;;;4.30;0.88;;;18.10;62.90;;;;;;4988801;28;20506;-51
2022/09/25 10:13:19;;;;;;;3.03;0.80;;;18.10;62.00;;;;;;4983048;28;20046;-51
2022/09/25 10:15:51;;;;;;;;;;;18.10;62.70;;;;;;4973588;28;20111;-51
2022/09/25 10:18:21;;;;;;;4.13;0.90;;;18.20;63.30;;;;;;4987380;28;20397;-51
2022/09/25 10:21:05;;;;;;;2.63;0.85;;;18.20;62.10;;;;;;4953215;29;20051;-48
2022/09/25 10:23:39;;;;;;;2.50;0.80;;;18.20;62.40;;;;;;4968486;28;20053;-51
2022/09/25 10:26:27;;;;;;;5.85;2.00;;;18.20;61.40;;;;;;4984670;28;20043;-48
2022/09/25 10:28:59;;;;;;;2.17;0.73;;;18.30;61.50;;;;;;4952450;29;20054;-51
2022/09/25 10:31:35;;;;;;;3.30;1.38;;;18.40;61.20;;;;;;4953543;28;20078;-52
2022/09/25 10:34:15;;;;;;;3.90;1.02;;;18.50;61.60;;;;;;4972555;28;20041;-51
2022/09/25 10:36:47;;;;;;;7.38;2.05;;;18.50;60.40;;;;;;4982509;28;20402;-52
2022/09/25 10:39:34;;;;;;;5.80;1.58;;;18.50;60.10;;;;;;4991933;28;20034;-47
2022/09/25 10:42:36;;;;;;;1.92;0.50;;;18.50;59.10;;;;;;4976948;28;20425;-51
2022/09/25 10:45:21;;;;;;;3.30;0.83;;;18.50;59.50;;;;;;4975040;28;20043;-48
2022/09/25 10:50:38;;;;;;;3.03;1.02;;;18.40;59.80;;;;;;4977090;28;20043;-52
2022/09/25 10:53:06;;;;;;;1.55;0.73;;;18.30;59.90;;;;;;4980503;28;20117;-48
2022/09/25 10:55:40;;;;;;;3.13;0.85;;;18.30;59.90;;;;;;4980305;28;20125;-52
2022/09/25 10:58:10;;;;;;;2.65;0.82;;;18.40;58.80;;;;;;4970646;28;20089;-48
2022/09/25 11:00:40;;;;;;;3.92;0.93;;;18.40;58.20;;;;;;4980820;28;20113;-48
2022/09/25 11:03:21;;;;;;;4.00;0.90;;;18.40;58.60;;;;;;4990460;28;20046;-49
2022/09/25 11:05:52;;;;;;;0.85;0.50;;;18.50;57.60;;;;;;4981692;28;20090;-48
2022/09/25 11:08:23;;;;;;;3.47;0.93;;;18.60;58.60;;;;;;4982737;28;20589;-50
2022/09/25 11:10:56;;;;;;;2.83;1.25;;;18.70;58.70;;;;;;4972272;28;20046;-48
2022/09/25 11:13:28;;;;;;;4.82;1.20;;;18.80;58.90;;;;;;4979664;28;20134;-48
2022/09/25 11:16:00;;;;;;;3.42;0.80;;;18.90;59.00;;;;;;4963385;28;20043;-51
2022/09/25 11:18:42;;;;;;;2.78;0.65;;;19.00;58.40;;;;;;4963732;28;20053;-47
2022/09/25 11:21:24;;;;;;;5.15;1.17;;;19.10;57.50;;;;;;4978040;28;20122;-48
2022/09/25 11:24:05;;;;;;;3.97;1.45;;;19.10;57.80;;;;;;4969071;28;20038;-50
2022/09/25 11:26:58;;;;;;;2.72;0.80;;;19.20;56.90;;;;;;4979311;28;20081;-51
2022/09/25 11:30:02;;;;;;;3.63;1.27;;;19.20;57.60;;;;;;4950940;28;20062;-48
2022/09/25 11:32:41;;;;;;;1.23;0.50;;;19.20;57.50;;;;;;4963678;28;20065;-50
2022/09/25 11:35:20;;;;;;;2.63;0.60;;;19.10;57.90;;;;;;4971598;28;20051;-50
2022/09/25 11:37:57;;;;;;;1.77;0.47;;;19.10;57.80;;;;;;4981743;28;20047;-50
2022/09/25 11:44:04;;;;;;;1.50;0.80;;;19.20;57.60;;;;;;4975117;28;20503;-49
2022/09/25 11:46:32;;;;;;;1.35;0.47;;;19.40;56.40;;;;;;4968602;28;20158;-49
2022/09/25 11:49:10;;;;;;;2.85;0.35;;;19.40;56.50;;;;;;4973157;28;20047;-52
2022/09/25 11:51:49;;;;;;;8.07;1.15;;;19.50;55.10;;;;;;4979930;28;20043;-50
2022/09/25 11:54:53;;;;;;;2.28;0.80;;;19.50;56.30;;;;;;4987766;28;20061;-47
2022/09/25 11:58:06;;;;;;;1.38;0.50;;;19.50;55.10;;;;;;4978515;28;20042;-48
2022/09/25 12:00:50;;;;;;;2.28;0.80;;;19.50;56.20;;;;;;4931557;29;20072;-51
2022/09/25 12:03:51;;;;;;;2.88;0.77;;;19.40;55.30;;;;;;4967382;28;20055;-51
2022/09/25 12:06:44;;;;;;;2.75;0.65;;;19.30;55.50;;;;;;4969750;28;20047;-52
2022/09/25 12:09:48;;;;;;;3.63;0.60;;;19.20;55.80;;;;;;4975573;28;20045;-47
2022/09/25 12:12:31;;;;;;;3.40;0.73;;;19.10;56.50;;;;;;4963671;28;20047;-48
2022/09/25 12:15:04;;;;;;;0.60;0.38;;;19.00;56.80;;;;;;4974224;28;20042;-49
2022/09/25 12:17:47;;;;;;;2.05;0.45;;;18.90;56.50;;;;;;4976700;28;20057;-52
2022/09/25 12:20:39;;;;;;;1.80;0.40;;;18.90;56.40;;;;;;4986934;28;20499;-49
2022/09/25 12:23:31;;;;;;;0.93;0.35;;;18.90;55.40;;;;;;4978668;28;20045;-49
2022/09/25 12:26:11;;;;;;;2.75;0.80;;;18.90;55.20;;;;;;4976424;28;20046;-49
2022/09/25 12:28:45;;;;;;;3.00;0.77;;;19.00;54.40;;;;;;4983992;28;20495;-49
2022/09/25 12:31:44;;;;;;;2.20;0.50;;;18.90;55.10;;;;;;4954597;28;20047;-48
2022/09/25 12:34:52;;;;;;;2.33;0.35;;;19.10;54.80;;;;;;4965046;28;20049;-50
2022/09/25 12:37:42;;;;;;;1.48;0.82;;;19.20;55.20;;;;;;4977526;28;20035;-51
2022/09/25 12:40:31;;;;;;;2.85;0.70;;;19.30;55.30;;;;;;4957449;28;20043;-49
2022/09/25 12:43:10;;;;;;;0.73;0.43;;;19.50;54.50;;;;;;4976391;28;20118;-47
2022/09/25 12:45:59;;;;;;;2.40;0.85;;;19.60;54.90;;;;;;4980398;28;20043;-51
2022/09/25 12:48:37;;;;;;;1.73;0.43;;;19.70;54.40;;;;;;4981535;28;20046;-51
2022/09/25 12:51:23;;;;;;;0.98;0.70;;;19.70;53.70;;;;;;4971701;28;20057;-50
2022/09/25 12:54:05;;;;;;;2.28;0.40;;;19.80;53.30;;;;;;4975094;28;20062;-51
2022/09/25 12:56:50;;;;;;;4.03;1.45;;;19.80;53.60;;;;;;4983282;28;20562;-51
2022/09/25 12:59:23;;;;;;;1.17;0.47;;;19.90;53.50;;;;;;4971329;28;20057;-51
2022/09/25 13:02:11;;;;;;;3.00;0.60;;;20.00;53.40;;;;;;4972190;28;20049;-48
2022/09/25 13:04:56;;;;;;;2.17;0.70;;;20.10;53.60;;;;;;4976545;28;20042;-52
2022/09/25 13:07:28;;;;;;;1.75;0.40;;;20.10;53.10;;;;;;4977043;28;20042;-49
2022/09/25 13:09:55;;;;;;;1.55;0.40;;;20.10;52.30;;;;;;4973719;28;20110;-49
2022/09/25 13:12:37;;;;;;;1.30;0.50;;;20.00;52.90;;;;;;4978109;28;20045;-48
2022/09/25 13:15:14;;;;;;;0.95;0.85;;;20.00;51.50;;;;;;4984900;28;20048;-52
2022/09/25 13:17:41;;;;;;;1.33;0.30;;;19.90;52.60;;;;;;4975814;28;20531;-49
2022/09/25 13:20:27;;;;;;;0.95;0.55;;;19.90;51.60;;;;;;4979351;28;20459;-52
2022/09/25 13:23:01;;;;;;;0.95;0.55;;;19.90;52.10;;;;;;4978556;28;20676;-50
2022/09/25 13:25:29;;;;;;;2.22;0.60;;;19.90;52.00;;;;;;4983067;28;20052;-52
2022/09/25 13:28:06;;;;;;;1.95;0.50;;;19.90;52.40;;;;;;4981100;28;20044;-47
2022/09/25 13:30:32;;;;;;;0.90;0.25;;;19.80;52.00;;;;;;4973082;28;20074;-51
2022/09/25 13:33:02;;;;;;;1.45;0.28;;;19.90;52.70;;;;;;4975478;28;20104;-51
2022/09/25 13:35:32;;;;;;;1.90;0.20;;;19.90;52.50;;;;;;4984483;28;20048;-51
2022/09/25 13:41:10;;;;;;;1.60;0.60;;;20.10;53.00;;;;;;4975386;28;20077;-51
2022/09/25 13:43:37;;;;;;;1.40;0.50;;;20.60;54.20;;;;;;4982039;28;20047;-52
2022/09/25 13:46:20;;;;;;;1.25;0.30;;;21.30;55.60;;;;;;4975506;28;20049;-48
2022/09/25 13:48:51;;;;;;;1.85;0.40;;;22.30;53.10;;;;;;4974857;28;20046;-49